Time,TemperatureF,DewpointF,PressureIn,WindDirection,WindDirectionDegrees,WindSpeedMPH,WindSpeedGustMPH,Humidity,HourlyPrecipIn,Conditions,Clouds,dailyrainin,SolarRadiationWatts/m^2,SoftwareType,DateUTC
2013-04-23 00:04:00,51.8,37.0,29.98,SSE,155,4.0,6.0,57,0.00,,,0.00,0,Wunderground v.1.15,2013-04-23 05:04:00,
2013-04-23 00:09:00,51.9,37.1,29.98,SSE,153,5.0,7.0,57,0.00,,,0.00,0,Wunderground v.1.15,2013-04-23 05:09:00,
2013-04-23 00:14:00,51.9,37.1,29.97,SE,134,5.0,8.0,57,0.00,,,0.00,0,Wunderground v.1.15,2013-04-23 05:14:00,
2013-04-23 00:20:00,52.1,37.0,29.97,SSE,155,5.0,9.0,57,0.00,,,0.00,0,weatherlink.com 1.10,2013-04-23 05:20:00,
2013-04-23 00:39:00,52.4,37.6,29.97,SSE,167,5.0,8.0,57,0.00,,,0.00,0,Wunderground v.1.15,2013-04-23 05:39:00,
2013-04-23 00:44:00,52.5,37.7,29.96,SSE,156,6.0,6.0,57,0.00,,,0.00,0,Wunderground v.1.15,2013-04-23 05:44:00,
2013-04-23 00:49:00,52.5,38.1,29.96,SSE,161,6.0,8.0,58,0.00,,,0.00,0,Wunderground v.1.15,2013-04-23 05:49:00,
2013-04-23 00:55:00,52.6,37.8,29.96,South,174,6.0,7.0,57,0.00,,,0.00,0,Wunderground v.1.15,2013-04-23 05:55:00,
2013-04-23 01:01:00,52.7,37.9,29.95,SSE,153,6.0,6.0,57,0.00,,,0.00,0,Wunderground v.1.15,2013-04-23 06:01:00,
2013-04-23 01:07:00,52.7,38.0,29.95,South,172,7.0,11.0,58,0.00,,,0.00,0,weatherlink.com 1.10,2013-04-23 06:07:00,
2013-04-23 01:12:00,52.7,38.3,29.95,South,173,6.0,9.0,58,0.00,,,0.00,0,Wunderground v.1.15,2013-04-23 06:12:00,
2013-04-23 01:17:00,52.6,38.2,29.95,SSE,159,5.0,9.0,58,0.00,,,0.00,0,Wunderground v.1.15,2013-04-23 06:17:00,
2013-04-23 01:22:00,52.7,38.3,29.95,South,174,5.0,7.0,58,0.00,,,0.00,0,Wunderground v.1.15,2013-04-23 06:22:00,
2013-04-23 01:29:00,52.8,38.4,29.94,South,176,6.0,8.0,58,0.00,,,0.00,0,Wunderground v.1.15,2013-04-23 06:29:00,
2013-04-23 01:34:00,52.8,38.4,29.94,South,176,5.0,6.0,58,0.00,,,0.00,0,Wunderground v.1.15,2013-04-23 06:34:00,
2013-04-23 01:40:00,52.8,38.9,29.94,South,170,5.0,6.0,59,0.00,,,0.00,0,Wunderground v.1.15,2013-04-23 06:40:00,
2013-04-23 01:45:00,52.8,38.9,29.94,South,182,5.0,7.0,59,0.00,,,0.00,0,Wunderground v.1.15,2013-04-23 06:45:00,
2013-04-23 01:51:00,52.9,39.0,29.94,South,179,5.0,7.0,59,0.00,,,0.00,0,Wunderground v.1.15,2013-04-23 06:51:00,
2013-04-23 01:57:00,53.0,38.6,29.94,South,170,6.0,9.0,58,0.00,,,0.00,0,Wunderground v.1.15,2013-04-23 06:57:00,
2013-04-23 02:02:00,53.1,38.7,29.93,South,190,5.0,6.0,58,0.00,,,0.00,0,Wunderground v.1.15,2013-04-23 07:02:00,
2013-04-23 02:09:00,53.0,39.0,29.93,South,180,5.0,9.0,59,0.00,,,0.00,0,Wunderground v.1.15,2013-04-23 07:09:00,
2013-04-23 02:14:00,52.9,39.0,29.93,South,173,5.0,9.0,59,0.00,,,0.00,0,Wunderground v.1.15,2013-04-23 07:14:00,
2013-04-23 02:19:00,52.8,38.9,29.93,SSW,203,5.0,9.0,59,0.00,,,0.00,0,Wunderground v.1.15,2013-04-23 07:19:00,
2013-04-23 02:25:00,52.6,39.0,29.93,SSW,196,4.0,9.0,60,0.00,,,0.00,0,weatherlink.com 1.10,2013-04-23 07:25:00,
2013-04-23 02:31:00,52.4,39.3,29.93,SSW,196,4.0,6.0,61,0.00,,,0.00,0,Wunderground v.1.15,2013-04-23 07:31:00,
2013-04-23 02:36:00,52.3,39.2,29.93,SSW,204,5.0,6.0,61,0.00,,,0.00,0,Wunderground v.1.15,2013-04-23 07:36:00,
2013-04-23 02:42:00,52.3,39.7,29.93,SSW,199,5.0,6.0,62,0.00,,,0.00,0,Wunderground v.1.15,2013-04-23 07:42:00,
2013-04-23 02:49:00,52.7,40.5,29.93,SSW,203,6.0,9.0,63,0.00,,,0.00,0,Wunderground v.1.15,2013-04-23 07:49:00,
2013-04-23 02:54:00,52.9,41.0,29.92,SSW,211,7.0,12.0,64,0.00,,,0.00,0,Wunderground v.1.15,2013-04-23 07:54:00,
2013-04-23 02:59:00,52.7,42.0,29.92,South,176,7.0,12.0,67,0.00,,,0.00,0,Wunderground v.1.15,2013-04-23 07:59:00,
2013-04-23 03:04:00,52.2,43.1,29.92,SSW,202,6.0,9.0,71,0.00,,,0.00,0,Wunderground v.1.15,2013-04-23 08:04:00,
2013-04-23 03:10:00,51.7,44.0,29.92,SSW,212,3.0,7.0,75,0.00,,,0.00,0,weatherlink.com 1.10,2013-04-23 08:10:00,
2013-04-23 03:15:00,51.4,44.1,29.92,South,178,5.0,8.0,76,0.00,,,0.00,0,Wunderground v.1.15,2013-04-23 08:15:00,
2013-04-23 03:20:00,51.3,44.7,29.91,South,179,4.0,4.0,78,0.00,,,0.00,0,Wunderground v.1.15,2013-04-23 08:20:00,
2013-04-23 03:26:00,51.0,44.7,29.91,South,179,3.0,4.0,79,0.00,,,0.00,0,Wunderground v.1.15,2013-04-23 08:26:00,
2013-04-23 03:32:00,50.6,45.0,29.91,South,177,3.0,3.0,81,0.00,,,0.00,0,Wunderground v.1.15,2013-04-23 08:32:00,
2013-04-23 03:37:00,50.4,45.1,29.91,South,175,3.0,5.0,82,0.00,,,0.00,0,Wunderground v.1.15,2013-04-23 08:37:00,
2013-04-23 03:42:00,50.1,44.8,29.91,South,175,3.0,3.0,82,0.00,,,0.00,0,Wunderground v.1.15,2013-04-23 08:42:00,
2013-04-23 03:49:00,49.8,45.2,29.90,South,169,3.0,4.0,84,0.00,,,0.00,0,Wunderground v.1.15,2013-04-23 08:49:00,
2013-04-23 03:54:00,49.6,45.3,29.90,South,169,3.0,3.0,85,0.00,,,0.00,0,Wunderground v.1.15,2013-04-23 08:54:00,
2013-04-23 04:00:00,49.4,45.4,29.89,SSE,164,3.0,3.0,86,0.00,,,0.00,0,Wunderground v.1.15,2013-04-23 09:00:00,
2013-04-23 04:06:00,49.2,45.5,29.89,SSW,196,3.0,4.0,87,0.00,,,0.00,0,Wunderground v.1.15,2013-04-23 09:06:00,
2013-04-23 04:12:00,49.1,45.4,29.88,South,188,3.0,3.0,87,0.00,,,0.00,0,Wunderground v.1.15,2013-04-23 09:12:00,
2013-04-23 04:19:00,48.9,45.5,29.87,SSE,160,3.0,4.0,88,0.00,,,0.00,0,Wunderground v.1.15,2013-04-23 09:19:00,
2013-04-23 04:24:00,48.9,45.5,29.87,South,178,4.0,6.0,88,0.00,,,0.00,0,Wunderground v.1.15,2013-04-23 09:24:00,
2013-04-23 04:30:00,48.8,46.0,29.87,South,178,2.0,7.0,89,0.00,,,0.00,0,weatherlink.com 1.10,2013-04-23 09:30:00,
2013-04-23 04:35:00,48.8,45.7,29.87,South,184,3.0,4.0,89,0.00,,,0.00,0,Wunderground v.1.15,2013-04-23 09:35:00,
2013-04-23 04:41:00,48.7,46.0,29.88,South,184,3.0,6.0,89,0.00,,,0.00,0,weatherlink.com 1.10,2013-04-23 09:41:00,
2013-04-23 04:47:00,48.7,45.9,29.88,South,185,3.0,5.0,90,0.00,,,0.00,0,Wunderground v.1.15,2013-04-23 09:47:00,
2013-04-23 04:52:00,48.8,46.0,29.88,South,186,3.0,3.0,90,0.00,,,0.00,0,Wunderground v.1.15,2013-04-23 09:52:00,
2013-04-23 04:59:00,48.7,45.9,29.88,South,186,3.0,5.0,90,0.00,,,0.00,0,Wunderground v.1.15,2013-04-23 09:59:00,
2013-04-23 05:04:00,48.7,45.9,29.88,South,186,2.0,3.0,90,0.00,,,0.00,0,Wunderground v.1.15,2013-04-23 10:04:00,
2013-04-23 05:09:00,48.7,45.9,29.87,South,186,2.0,3.0,90,0.00,,,0.00,0,Wunderground v.1.15,2013-04-23 10:09:00,
2013-04-23 05:14:00,48.7,45.9,29.87,South,186,1.0,2.0,90,0.00,,,0.00,0,Wunderground v.1.15,2013-04-23 10:14:00,
2013-04-23 05:19:00,48.6,45.8,29.87,South,186,1.0,2.0,90,0.00,,,0.00,0,Wunderground v.1.15,2013-04-23 10:19:00,
2013-04-23 05:25:00,48.5,45.7,29.86,South,186,0.0,0.0,90,0.00,,,0.00,0,Wunderground v.1.15,2013-04-23 10:25:00,
2013-04-23 05:30:00,48.4,45.9,29.84,South,186,0.0,0.0,91,0.00,,,0.00,0,Wunderground v.1.15,2013-04-23 10:30:00,
2013-04-23 05:36:00,48.3,45.8,29.83,South,186,0.0,0.0,91,0.00,,,0.00,0,Wunderground v.1.15,2013-04-23 10:36:00,
2013-04-23 05:42:00,48.2,45.7,29.83,South,186,0.0,0.0,91,0.00,,,0.00,0,Wunderground v.1.15,2013-04-23 10:42:00,
2013-04-23 05:49:00,48.1,45.6,29.83,South,186,0.0,2.0,91,0.00,,,0.00,0,Wunderground v.1.15,2013-04-23 10:49:00,
2013-04-23 05:54:00,48.1,45.6,29.86,South,186,1.0,3.0,91,0.00,,,0.00,0,Wunderground v.1.15,2013-04-23 10:54:00,
2013-04-23 05:59:00,48.1,45.6,29.87,South,186,1.0,3.0,91,0.00,,,0.00,0,Wunderground v.1.15,2013-04-23 10:59:00,
2013-04-23 06:05:00,48.1,45.6,29.87,South,186,1.0,2.0,91,0.00,,,0.00,0,Wunderground v.1.15,2013-04-23 11:05:00,
2013-04-23 06:11:00,48.4,46.2,29.87,SSW,205,2.0,4.0,92,0.00,,,0.00,0,Wunderground v.1.15,2013-04-23 11:11:00,
2013-04-23 06:16:00,48.7,46.5,29.87,SSW,207,3.0,5.0,92,0.00,,,0.00,0,Wunderground v.1.15,2013-04-23 11:16:00,
2013-04-23 06:22:00,49.1,46.9,29.87,SSW,203,4.0,6.0,92,0.00,,,0.00,5,Wunderground v.1.15,2013-04-23 11:22:00,
2013-04-23 06:27:00,49.4,46.9,29.87,SSW,205,4.0,7.0,91,0.00,,,0.00,0,Wunderground v.1.15,2013-04-23 11:27:00,
2013-04-23 06:34:00,49.9,47.4,29.88,SW,217,5.0,6.0,91,0.00,,,0.00,5,Wunderground v.1.15,2013-04-23 11:34:00,
2013-04-23 06:39:00,50.1,47.6,29.87,SW,225,5.0,6.0,91,0.00,,,0.00,12,Wunderground v.1.15,2013-04-23 11:39:00,
2013-04-23 06:44:00,50.2,47.7,29.86,SW,223,4.0,5.0,91,0.00,,,0.00,14,Wunderground v.1.15,2013-04-23 11:44:00,
2013-04-23 06:50:00,50.4,47.9,29.87,SW,225,5.0,8.0,91,0.00,,,0.00,14,Wunderground v.1.15,2013-04-23 11:50:00,
2013-04-23 06:55:00,50.5,47.7,29.86,SW,229,5.0,9.0,90,0.00,,,0.00,18,Wunderground v.1.15,2013-04-23 11:55:00,
2013-04-23 07:01:00,50.5,47.7,29.87,SSW,213,5.0,6.0,90,0.00,,,0.00,23,Wunderground v.1.15,2013-04-23 12:01:00,
2013-04-23 07:07:00,50.5,47.7,29.87,SW,231,4.0,7.0,90,0.00,,,0.00,28,Wunderground v.1.15,2013-04-23 12:07:00,
2013-04-23 07:14:00,50.6,47.8,29.86,SW,228,4.0,6.0,90,0.00,,,0.00,26,Wunderground v.1.15,2013-04-23 12:14:00,
2013-04-23 07:19:00,50.6,47.8,29.86,SW,229,5.0,6.0,90,0.00,,,0.00,25,Wunderground v.1.15,2013-04-23 12:19:00,
2013-04-23 07:24:00,50.7,47.9,29.86,SW,227,6.0,7.0,90,0.00,,,0.00,35,Wunderground v.1.15,2013-04-23 12:24:00,
2013-04-23 07:29:00,50.8,48.0,29.86,SW,227,5.0,7.0,90,0.00,,,0.00,54,Wunderground v.1.15,2013-04-23 12:29:00,
2013-04-23 07:35:00,50.8,48.0,29.86,West,263,4.0,6.0,90,0.00,,,0.00,35,Wunderground v.1.15,2013-04-23 12:35:00,
2013-04-23 07:40:00,50.8,48.0,29.86,SW,236,4.0,8.0,90,0.00,,,0.00,28,Wunderground v.1.15,2013-04-23 12:40:00,
2013-04-23 07:46:00,50.7,47.9,29.86,WSW,254,5.0,9.0,90,0.00,,,0.00,72,Wunderground v.1.15,2013-04-23 12:46:00,
2013-04-23 07:51:00,50.8,48.0,29.86,SSW,207,5.0,5.0,90,0.00,,,0.00,111,Wunderground v.1.15,2013-04-23 12:51:00,
2013-04-23 07:57:00,50.9,48.1,29.86,SSW,202,5.0,7.0,90,0.00,,,0.00,95,Wunderground v.1.15,2013-04-23 12:57:00,
2013-04-23 08:04:00,51.0,48.2,29.86,SW,226,6.0,6.0,90,0.00,,,0.00,116,Wunderground v.1.15,2013-04-23 13:04:00,
2013-04-23 08:09:00,51.1,48.6,29.86,SW,214,5.0,6.0,91,0.00,,,0.00,128,Wunderground v.1.15,2013-04-23 13:09:00,
2013-04-23 08:14:00,51.1,48.3,29.86,SW,234,4.0,6.0,90,0.00,,,0.00,132,Wunderground v.1.15,2013-04-23 13:14:00,
2013-04-23 08:19:00,51.1,48.3,29.86,SW,232,5.0,6.0,90,0.00,,,0.00,135,Wunderground v.1.15,2013-04-23 13:19:00,
2013-04-23 08:25:00,51.2,48.4,29.86,SW,225,6.0,7.0,90,0.00,,,0.00,171,Wunderground v.1.15,2013-04-23 13:25:00,
2013-04-23 08:31:00,51.4,48.6,29.86,SW,218,5.0,6.0,90,0.00,,,0.00,174,Wunderground v.1.15,2013-04-23 13:31:00,
2013-04-23 08:36:00,51.5,48.7,29.87,West,263,5.0,6.0,90,0.00,,,0.00,142,Wunderground v.1.15,2013-04-23 13:36:00,
2013-04-23 08:42:00,51.5,48.4,29.87,WSW,244,5.0,9.0,89,0.00,,,0.00,192,Wunderground v.1.15,2013-04-23 13:42:00,
2013-04-23 08:48:00,51.6,49.0,29.87,SW,220,6.0,12.0,89,0.00,,,0.00,267,weatherlink.com 1.10,2013-04-23 13:48:00,
2013-04-23 08:54:00,51.8,49.5,29.87,SW,221,5.0,6.0,92,0.00,,,0.00,153,Wunderground v.1.15,2013-04-23 13:54:00,
2013-04-23 08:59:00,51.8,48.7,29.87,SW,232,5.0,6.0,89,0.00,,,0.00,153,Wunderground v.1.15,2013-04-23 13:59:00,
2013-04-23 09:04:00,51.7,48.3,29.86,WSW,242,5.0,7.0,88,0.00,,,0.00,155,Wunderground v.1.15,2013-04-23 14:04:00,
2013-04-23 09:09:00,51.7,48.6,29.86,WSW,250,5.0,7.0,89,0.00,,,0.00,190,Wunderground v.1.15,2013-04-23 14:09:00,
2013-04-23 09:15:00,51.8,48.4,29.86,WSW,246,5.0,8.0,88,0.00,,,0.00,274,Wunderground v.1.15,2013-04-23 14:15:00,
2013-04-23 09:21:00,52.3,49.0,29.86,WSW,244,3.0,8.0,89,0.00,,,0.00,250,weatherlink.com 1.10,2013-04-23 14:21:00,
2013-04-23 09:27:00,52.4,48.9,29.85,WSW,258,4.0,7.0,88,0.00,,,0.00,218,Wunderground v.1.15,2013-04-23 14:27:00,
2013-04-23 09:32:00,52.5,48.7,29.84,West,267,4.0,6.0,87,0.00,,,0.00,246,Wunderground v.1.15,2013-04-23 14:32:00,
2013-04-23 09:39:00,52.5,48.4,29.84,WNW,298,3.0,6.0,86,0.00,,,0.00,111,Wunderground v.1.15,2013-04-23 14:39:00,
2013-04-23 09:44:00,50.9,45.9,29.84,WNW,294,5.0,11.0,83,0.00,,,0.00,206,Wunderground v.1.15,2013-04-23 14:44:00,
2013-04-23 09:49:00,49.6,45.3,29.85,West,264,6.0,11.0,85,0.00,,,0.00,148,Wunderground v.1.15,2013-04-23 14:49:00,
2013-04-23 09:55:00,48.5,44.5,29.85,WNW,292,7.0,11.0,86,0.00,,,0.00,264,Wunderground v.1.15,2013-04-23 14:55:00,
2013-04-23 10:01:00,48.2,44.8,29.86,WNW,295,7.0,13.0,88,0.00,,,0.00,181,Wunderground v.1.15,2013-04-23 15:01:00,
2013-04-23 10:07:00,47.8,44.1,29.87,NW,309,7.0,13.0,87,0.00,,,0.00,139,Wunderground v.1.15,2013-04-23 15:07:00,
2013-04-23 10:14:00,47.4,44.0,29.87,WNW,292,6.0,8.0,88,0.00,,,0.00,123,Wunderground v.1.15,2013-04-23 15:14:00,
2013-04-23 10:19:00,46.9,43.2,29.88,NW,318,6.0,10.0,87,0.00,,,0.00,111,Wunderground v.1.15,2013-04-23 15:19:00,
2013-04-23 10:24:00,46.1,42.4,29.88,NW,315,8.0,13.0,87,0.00,,,0.00,95,Wunderground v.1.15,2013-04-23 15:24:00,
2013-04-23 10:30:00,45.3,41.7,29.88,WNW,300,10.0,10.0,87,0.00,,,0.00,90,Wunderground v.1.15,2013-04-23 15:30:00,
2013-04-23 10:36:00,44.5,41.0,29.88,NW,313,11.0,21.0,87,0.00,,,0.00,97,weatherlink.com 1.10,2013-04-23 15:36:00,
2013-04-23 10:41:00,43.7,39.5,29.88,NW,324,9.0,15.0,85,0.00,,,0.00,120,Wunderground v.1.15,2013-04-23 15:41:00,
2013-04-23 10:46:00,42.9,39.0,29.90,WNW,302,9.0,15.0,86,0.00,,,0.00,125,Wunderground v.1.15,2013-04-23 15:46:00,
2013-04-23 10:52:00,42.1,38.0,29.90,NNW,337,7.0,17.0,85,0.00,,,0.00,121,weatherlink.com 1.10,2013-04-23 15:52:00,
2013-04-23 10:57:00,41.7,37.8,29.91,WNW,294,9.0,10.0,86,0.00,,,0.00,102,Wunderground v.1.15,2013-04-23 15:57:00,
2013-04-23 11:02:00,41.2,37.3,29.91,WNW,302,8.0,10.0,86,0.00,,,0.00,111,Wunderground v.1.15,2013-04-23 16:02:00,
2013-04-23 11:09:00,40.7,37.1,29.91,WNW,292,8.0,13.0,87,0.00,,,0.00,100,Wunderground v.1.15,2013-04-23 16:09:00,
2013-04-23 11:14:00,40.5,37.2,29.91,NNW,338,8.0,9.0,88,0.00,,,0.01,70,Wunderground v.1.15,2013-04-23 16:14:00,
2013-04-23 11:20:00,40.2,36.9,29.91,NW,320,7.0,7.0,88,0.00,,,0.01,79,Wunderground v.1.15,2013-04-23 16:20:00,
2013-04-23 11:26:00,39.6,36.3,29.91,NW,316,7.0,10.0,88,0.00,,,0.01,88,Wunderground v.1.15,2013-04-23 16:26:00,
2013-04-23 11:32:00,39.4,36.4,29.91,WNW,302,7.0,8.0,89,0.00,,,0.01,111,Wunderground v.1.15,2013-04-23 16:32:00,
2013-04-23 11:39:00,39.3,36.6,29.90,NNW,341,7.0,8.0,90,0.00,,,0.01,125,Wunderground v.1.15,2013-04-23 16:39:00,
2013-04-23 11:44:00,39.1,36.4,29.90,WNW,290,6.0,9.0,90,0.00,,,0.02,113,Wunderground v.1.15,2013-04-23 16:44:00,
2013-04-23 11:49:00,39.1,36.4,29.90,WNW,302,6.0,9.0,90,0.00,,,0.02,121,Wunderground v.1.15,2013-04-23 16:49:00,
2013-04-23 11:55:00,39.1,36.7,29.90,NNW,340,5.0,7.0,91,0.00,,,0.02,114,Wunderground v.1.15,2013-04-23 16:55:00,
2013-04-23 12:01:00,39.1,36.7,29.90,NNW,327,6.0,6.0,91,0.00,,,0.02,107,Wunderground v.1.15,2013-04-23 17:01:00,
2013-04-23 12:07:00,39.1,37.0,29.90,NW,304,5.0,11.0,91,0.03,,,0.03,104,weatherlink.com 1.10,2013-04-23 17:07:00,
2013-04-23 12:12:00,38.9,36.5,29.90,WNW,286,6.0,11.0,91,0.00,,,0.03,95,Wunderground v.1.15,2013-04-23 17:12:00,
2013-04-23 12:19:00,38.7,36.3,29.90,NW,309,7.0,12.0,91,0.00,,,0.03,111,Wunderground v.1.15,2013-04-23 17:19:00,
2013-04-23 12:24:00,38.7,36.3,29.90,WNW,290,7.0,8.0,91,0.00,,,0.04,93,Wunderground v.1.15,2013-04-23 17:24:00,
2013-04-23 12:29:00,38.7,36.6,29.91,WNW,292,7.0,8.0,92,0.00,,,0.04,83,Wunderground v.1.15,2013-04-23 17:29:00,
2013-04-23 12:34:00,38.7,36.6,29.90,WNW,302,5.0,6.0,92,0.00,,,0.04,86,Wunderground v.1.15,2013-04-23 17:34:00,
2013-04-23 12:40:00,38.8,36.7,29.90,WNW,284,5.0,8.0,92,0.04,,,0.05,77,Wunderground v.1.15,2013-04-23 17:40:00,
2013-04-23 12:45:00,38.6,36.5,29.91,West,268,6.0,8.0,92,0.04,,,0.05,76,Wunderground v.1.15,2013-04-23 17:45:00,
2013-04-23 12:51:00,38.6,36.2,29.90,WNW,299,5.0,7.0,91,0.06,,,0.06,86,Wunderground v.1.15,2013-04-23 17:51:00,
2013-04-23 12:57:00,38.7,36.6,29.90,NNW,348,5.0,11.0,92,0.07,,,0.07,100,Wunderground v.1.15,2013-04-23 17:57:00,
2013-04-23 13:02:00,38.7,36.6,29.90,NW,321,6.0,6.0,92,0.11,,,0.08,105,Wunderground v.1.15,2013-04-23 18:02:00,
2013-04-23 13:08:00,38.6,37.0,29.90,NW,315,5.0,12.0,92,0.05,,,0.08,81,weatherlink.com 1.10,2013-04-23 18:08:00,
2013-04-23 13:14:00,38.4,36.3,29.90,WNW,300,6.0,11.0,92,0.07,,,0.09,70,Wunderground v.1.15,2013-04-23 18:14:00,
2013-04-23 13:19:00,38.2,36.1,29.90,NW,323,7.0,11.0,92,0.08,,,0.10,77,Wunderground v.1.15,2013-04-23 18:19:00,
2013-04-23 13:24:00,38.1,36.0,29.90,NW,305,6.0,9.0,92,0.08,,,0.10,72,Wunderground v.1.15,2013-04-23 18:24:00,
2013-04-23 13:30:00,38.0,36.2,29.90,NW,319,7.0,7.0,93,0.07,,,0.11,84,Wunderground v.1.15,2013-04-23 18:30:00,
2013-04-23 13:36:00,38.0,36.2,29.90,WNW,295,6.0,7.0,93,0.07,,,0.12,81,Wunderground v.1.15,2013-04-23 18:36:00,
2013-04-23 13:42:00,37.9,36.1,29.89,NW,317,6.0,9.0,93,0.07,,,0.12,105,Wunderground v.1.15,2013-04-23 18:42:00,
2013-04-23 13:47:00,37.8,36.0,29.89,NW,310,7.0,9.0,93,0.04,,,0.12,93,Wunderground v.1.15,2013-04-23 18:47:00,
2013-04-23 13:54:00,37.8,36.0,29.90,NW,313,6.0,7.0,93,0.04,,,0.13,83,Wunderground v.1.15,2013-04-23 18:54:00,
2013-04-23 13:59:00,37.7,35.9,29.89,NNW,327,6.0,8.0,93,0.06,,,0.14,77,Wunderground v.1.15,2013-04-23 18:59:00,
2013-04-23 14:04:00,37.6,35.8,29.89,NW,318,6.0,12.0,93,0.06,,,0.14,72,Wunderground v.1.15,2013-04-23 19:04:00,
2013-04-23 14:10:00,37.7,36.0,29.90,NNW,327,5.0,12.0,93,0.06,,,0.15,79,weatherlink.com 1.10,2013-04-23 19:10:00,
2013-04-23 14:16:00,37.6,35.8,29.90,NW,323,5.0,11.0,93,0.10,,,0.16,65,Wunderground v.1.15,2013-04-23 19:16:00,
2013-04-23 14:21:00,37.4,35.6,29.90,NW,316,7.0,7.0,93,0.08,,,0.17,88,Wunderground v.1.15,2013-04-23 19:21:00,
2013-04-23 14:27:00,37.4,35.6,29.90,NW,315,6.0,8.0,93,0.11,,,0.18,81,Wunderground v.1.15,2013-04-23 19:27:00,
2013-04-23 14:34:00,37.4,35.8,29.90,NW,313,6.0,6.0,94,0.09,,,0.19,84,Wunderground v.1.15,2013-04-23 19:34:00,
2013-04-23 14:39:00,37.2,35.6,29.90,WNW,300,6.0,9.0,94,0.11,,,0.20,93,Wunderground v.1.15,2013-04-23 19:39:00,
2013-04-23 14:45:00,37.1,35.5,29.90,NNW,330,6.0,9.0,94,0.09,,,0.21,86,Wunderground v.1.15,2013-04-23 19:45:00,
2013-04-23 14:51:00,37.0,35.4,29.90,NW,315,6.0,7.0,94,0.08,,,0.21,114,Wunderground v.1.15,2013-04-23 19:51:00,
2013-04-23 14:57:00,37.1,35.5,29.89,NW,310,6.0,7.0,94,0.08,,,0.22,113,Wunderground v.1.15,2013-04-23 19:57:00,
2013-04-23 15:02:00,37.2,35.6,29.90,NW,315,5.0,9.0,94,0.07,,,0.23,118,Wunderground v.1.15,2013-04-23 20:02:00,
2013-04-23 15:09:00,37.0,35.4,29.90,NNW,329,6.0,10.0,94,0.08,,,0.24,100,Wunderground v.1.15,2013-04-23 20:09:00,
2013-04-23 15:14:00,36.6,35.0,29.89,NW,319,7.0,10.0,94,0.12,,,0.25,113,Wunderground v.1.15,2013-04-23 20:14:00,
2013-04-23 15:20:00,36.3,34.7,29.89,NW,317,6.0,6.0,94,0.12,,,0.26,104,Wunderground v.1.15,2013-04-23 20:20:00,
2013-04-23 15:25:00,36.4,34.8,29.89,NW,317,5.0,7.0,94,0.08,,,0.26,83,Wunderground v.1.15,2013-04-23 20:25:00,
2013-04-23 15:31:00,36.2,34.6,29.89,NNW,340,6.0,6.0,94,0.04,,,0.26,77,Wunderground v.1.15,2013-04-23 20:31:00,
2013-04-23 15:36:00,36.1,34.5,29.89,NNW,329,6.0,12.0,94,0.00,,,0.26,70,Wunderground v.1.15,2013-04-23 20:36:00,
2013-04-23 15:41:00,36.1,34.5,29.89,NNW,336,7.0,9.0,94,0.00,,,0.26,97,Wunderground v.1.15,2013-04-23 20:41:00,
2013-04-23 15:47:00,36.0,34.4,29.90,NW,313,6.0,9.0,94,0.00,,,0.27,81,Wunderground v.1.15,2013-04-23 20:47:00,
2013-04-23 15:54:00,35.9,34.3,29.90,NW,321,5.0,7.0,94,0.08,,,0.28,104,Wunderground v.1.15,2013-04-23 20:54:00,
2013-04-23 15:59:00,35.9,34.3,29.90,NNW,330,5.0,7.0,94,0.07,,,0.29,137,Wunderground v.1.15,2013-04-23 20:59:00,
2013-04-23 16:04:00,35.9,34.3,29.90,NW,307,5.0,7.0,94,0.07,,,0.29,128,Wunderground v.1.15,2013-04-23 21:04:00,
2013-04-23 16:09:00,36.0,34.7,29.90,NW,317,4.0,7.0,95,0.10,,,0.30,83,Wunderground v.1.15,2013-04-23 21:09:00,
2013-04-23 16:15:00,36.0,34.7,29.90,WNW,299,3.0,6.0,95,0.05,,,0.30,69,Wunderground v.1.15,2013-04-23 21:15:00,
2013-04-23 16:21:00,36.1,34.8,29.90,NW,305,3.0,5.0,95,0.04,,,0.31,65,Wunderground v.1.15,2013-04-23 21:21:00,
2013-04-23 16:26:00,36.1,34.8,29.90,NNW,333,4.0,6.0,95,0.04,,,0.31,77,Wunderground v.1.15,2013-04-23 21:26:00,
2013-04-23 16:32:00,36.4,35.1,29.90,NW,316,4.0,4.0,95,0.04,,,0.31,69,Wunderground v.1.15,2013-04-23 21:32:00,
2013-04-23 16:37:00,36.8,35.5,29.90,NW,323,4.0,6.0,95,0.04,,,0.32,69,Wunderground v.1.15,2013-04-23 21:37:00,
2013-04-23 16:44:00,37.0,35.7,29.90,NNW,340,6.0,10.0,95,0.04,,,0.32,121,Wunderground v.1.15,2013-04-23 21:44:00,
2013-04-23 16:49:00,37.2,35.9,29.90,NW,322,6.0,10.0,95,0.04,,,0.32,90,Wunderground v.1.15,2013-04-23 21:49:00,
2013-04-23 16:54:00,37.2,35.9,29.90,NW,316,5.0,7.0,95,0.00,,,0.32,88,Wunderground v.1.15,2013-04-23 21:54:00,
2013-04-23 16:59:00,37.1,35.5,29.89,NW,323,6.0,7.0,94,0.00,,,0.32,72,Wunderground v.1.15,2013-04-23 21:59:00,
2013-04-23 17:05:00,37.0,35.7,29.90,NNW,346,6.0,9.0,95,0.00,,,0.33,86,Wunderground v.1.15,2013-04-23 22:05:00,
2013-04-23 17:11:00,37.0,35.4,29.90,NNW,328,5.0,6.0,94,0.00,,,0.33,76,Wunderground v.1.15,2013-04-23 22:11:00,
2013-04-23 17:17:00,37.0,35.7,29.90,NNW,346,5.0,7.0,95,0.04,,,0.34,102,Wunderground v.1.15,2013-04-23 22:17:00,
2013-04-23 17:22:00,37.1,35.5,29.90,NNW,327,5.0,5.0,94,0.04,,,0.34,97,Wunderground v.1.15,2013-04-23 22:22:00,
2013-04-23 17:29:00,37.3,36.0,29.90,NNW,348,5.0,6.0,95,0.04,,,0.34,65,Wunderground v.1.15,2013-04-23 22:29:00,
2013-04-23 17:34:00,37.5,36.2,29.90,NNW,342,5.0,5.0,95,0.00,,,0.34,102,Wunderground v.1.15,2013-04-23 22:34:00,
2013-04-23 17:39:00,37.6,36.0,29.90,North,355,5.0,8.0,94,0.00,,,0.34,76,Wunderground v.1.15,2013-04-23 22:39:00,
2013-04-23 17:44:00,37.7,36.4,29.90,NNW,333,6.0,6.0,95,0.00,,,0.34,65,Wunderground v.1.15,2013-04-23 22:44:00,
2013-04-23 17:50:00,38.0,36.4,29.90,NW,317,5.0,6.0,94,0.00,,,0.34,90,Wunderground v.1.15,2013-04-23 22:50:00,
2013-04-23 17:55:00,38.1,36.5,29.90,NNW,329,5.0,7.0,94,0.00,,,0.34,83,Wunderground v.1.15,2013-04-23 22:55:00,
2013-04-23 18:01:00,38.3,36.7,29.90,NNW,327,5.0,8.0,94,0.00,,,0.34,65,Wunderground v.1.15,2013-04-23 23:01:00,
2013-04-23 18:07:00,38.4,36.6,29.89,NNW,331,5.0,8.0,93,0.00,,,0.34,40,Wunderground v.1.15,2013-04-23 23:07:00,
2013-04-23 18:12:00,38.4,36.6,29.90,NW,324,4.0,5.0,93,0.00,,,0.34,46,Wunderground v.1.15,2013-04-23 23:12:00,
2013-04-23 18:18:00,38.5,37.0,29.90,NW,326,4.0,6.0,93,0.00,,,0.34,44,weatherlink.com 1.10,2013-04-23 23:18:00,
2013-04-23 18:24:00,38.5,36.7,29.90,NNW,330,4.0,6.0,93,0.00,,,0.34,44,Wunderground v.1.15,2013-04-23 23:24:00,
2013-04-23 18:29:00,38.5,36.7,29.90,NW,325,4.0,6.0,93,0.00,,,0.34,37,Wunderground v.1.15,2013-04-23 23:29:00,
2013-04-23 18:34:00,38.6,36.8,29.90,NNW,329,3.0,4.0,93,0.00,,,0.34,30,Wunderground v.1.15,2013-04-23 23:34:00,
2013-04-23 18:39:00,38.6,36.8,29.90,NNW,336,3.0,8.0,93,0.00,,,0.34,30,Wunderground v.1.15,2013-04-23 23:39:00,
2013-04-23 18:45:00,38.5,36.4,29.90,NNW,338,5.0,6.0,92,0.00,,,0.34,26,Wunderground v.1.15,2013-04-23 23:45:00,
2013-04-23 18:51:00,38.6,37.0,29.90,North,355,5.0,8.0,92,0.00,,,0.34,18,weatherlink.com 1.10,2013-04-23 23:51:00,
2013-04-23 18:56:00,38.5,36.1,29.90,NNW,346,4.0,6.0,91,0.00,,,0.34,19,Wunderground v.1.15,2013-04-23 23:56:00,
2013-04-23 19:02:00,38.5,36.0,29.90,NNW,346,1.0,5.0,91,0.00,,,0.34,14,weatherlink.com 1.10,2013-04-24 00:02:00,
2013-04-23 19:07:00,38.5,36.1,29.91,NW,324,3.0,4.0,91,0.00,,,0.34,9,Wunderground v.1.15,2013-04-24 00:07:00,
2013-04-23 19:14:00,38.4,36.0,29.91,NW,323,3.0,4.0,91,0.00,,,0.34,7,Wunderground v.1.15,2013-04-24 00:14:00,
2013-04-23 19:19:00,38.4,36.0,29.91,NW,322,3.0,4.0,91,0.00,,,0.34,0,Wunderground v.1.15,2013-04-24 00:19:00,
2013-04-23 19:24:00,38.4,36.0,29.92,NW,323,2.0,3.0,91,0.00,,,0.34,0,Wunderground v.1.15,2013-04-24 00:24:00,
2013-04-23 19:29:00,38.4,35.7,29.92,NW,323,2.0,4.0,90,0.00,,,0.34,0,Wunderground v.1.15,2013-04-24 00:29:00,
2013-04-23 19:34:00,38.4,35.7,29.92,NW,315,3.0,3.0,90,0.00,,,0.34,0,Wunderground v.1.15,2013-04-24 00:34:00,
2013-04-23 19:40:00,38.4,35.7,29.92,NNW,327,3.0,4.0,90,0.00,,,0.34,0,Wunderground v.1.15,2013-04-24 00:40:00,
2013-04-23 19:45:00,38.3,35.6,29.92,NNW,327,3.0,5.0,90,0.00,,,0.34,0,Wunderground v.1.15,2013-04-24 00:45:00,
2013-04-23 19:51:00,38.4,35.4,29.92,NNW,331,3.0,3.0,89,0.00,,,0.34,0,Wunderground v.1.15,2013-04-24 00:51:00,
2013-04-23 19:56:00,38.4,35.4,29.93,NW,309,3.0,5.0,89,0.00,,,0.34,0,Wunderground v.1.15,2013-04-24 00:56:00,
2013-04-23 20:02:00,38.3,35.3,29.92,NW,314,3.0,5.0,89,0.00,,,0.34,0,Wunderground v.1.15,2013-04-24 01:02:00,
2013-04-23 20:09:00,38.3,35.1,29.92,NNW,334,3.0,5.0,88,0.00,,,0.34,0,Wunderground v.1.15,2013-04-24 01:09:00,
2013-04-23 20:14:00,38.3,35.1,29.92,NNW,333,3.0,5.0,88,0.00,,,0.34,0,Wunderground v.1.15,2013-04-24 01:14:00,
2013-04-23 20:19:00,38.3,35.1,29.93,NNW,333,2.0,5.0,88,0.00,,,0.34,0,Wunderground v.1.15,2013-04-24 01:19:00,
2013-04-23 20:24:00,38.2,35.0,29.93,NNW,333,2.0,4.0,88,0.00,,,0.34,0,Wunderground v.1.15,2013-04-24 01:24:00,
2013-04-23 20:30:00,38.2,35.0,29.93,NNW,329,4.0,4.0,88,0.00,,,0.34,0,Wunderground v.1.15,2013-04-24 01:30:00,
2013-04-23 20:36:00,38.2,34.7,29.92,NNW,331,4.0,5.0,87,0.00,,,0.34,0,Wunderground v.1.15,2013-04-24 01:36:00,
2013-04-23 20:42:00,38.2,34.7,29.93,NW,326,5.0,5.0,87,0.00,,,0.34,0,Wunderground v.1.15,2013-04-24 01:42:00,
2013-04-23 20:47:00,38.2,34.7,29.93,NNW,330,4.0,6.0,87,0.00,,,0.34,0,Wunderground v.1.15,2013-04-24 01:47:00,
2013-04-23 20:54:00,38.2,34.4,29.93,NW,317,5.0,7.0,86,0.00,,,0.34,0,Wunderground v.1.15,2013-04-24 01:54:00,
2013-04-23 20:59:00,38.2,34.4,29.93,NNW,329,5.0,8.0,86,0.00,,,0.34,0,Wunderground v.1.15,2013-04-24 01:59:00,
2013-04-23 21:04:00,38.2,34.4,29.93,NW,326,5.0,6.0,86,0.00,,,0.34,0,Wunderground v.1.15,2013-04-24 02:04:00,
2013-04-23 21:09:00,38.2,34.1,29.93,NNW,327,4.0,6.0,85,0.00,,,0.34,0,Wunderground v.1.15,2013-04-24 02:09:00,
2013-04-23 21:15:00,38.1,34.0,29.93,NW,319,4.0,6.0,85,0.00,,,0.34,0,Wunderground v.1.15,2013-04-24 02:15:00,
2013-04-23 21:21:00,38.1,34.0,29.93,NW,315,4.0,9.0,85,0.00,,,0.34,0,weatherlink.com 1.10,2013-04-24 02:21:00,
2013-04-23 21:27:00,38.2,34.1,29.93,NW,323,5.0,6.0,85,0.00,,,0.34,0,Wunderground v.1.15,2013-04-24 02:27:00,
2013-04-23 21:32:00,38.1,33.7,29.92,NNW,333,5.0,5.0,84,0.00,,,0.34,0,Wunderground v.1.15,2013-04-24 02:32:00,
2013-04-23 21:40:00,38.1,33.7,29.92,NW,325,5.0,7.0,84,0.00,,,0.34,0,Wunderground v.1.15,2013-04-24 02:40:00,
2013-04-23 21:45:00,38.1,33.7,29.92,NNW,329,6.0,7.0,84,0.00,,,0.34,0,Wunderground v.1.15,2013-04-24 02:45:00,
2013-04-23 21:51:00,38.1,34.0,29.92,NNW,328,4.0,9.0,84,0.00,,,0.34,0,weatherlink.com 1.10,2013-04-24 02:51:00,
2013-04-23 21:57:00,38.1,33.4,29.92,NW,321,6.0,7.0,83,0.00,,,0.34,0,Wunderground v.1.15,2013-04-24 02:57:00,
2013-04-23 22:02:00,38.1,33.4,29.92,NNW,331,6.0,10.0,83,0.00,,,0.34,0,Wunderground v.1.15,2013-04-24 03:02:00,
2013-04-23 22:09:00,38.1,33.4,29.93,NNW,340,6.0,10.0,83,0.00,,,0.34,0,Wunderground v.1.15,2013-04-24 03:09:00,
2013-04-23 22:14:00,38.0,33.3,29.92,NNW,330,5.0,6.0,83,0.00,,,0.34,0,Wunderground v.1.15,2013-04-24 03:14:00,
2013-04-23 22:20:00,38.0,33.3,29.92,NNW,337,6.0,6.0,83,0.00,,,0.34,0,Wunderground v.1.15,2013-04-24 03:20:00,
2013-04-23 22:25:00,38.0,33.3,29.93,NNW,329,6.0,8.0,83,0.00,,,0.34,0,Wunderground v.1.15,2013-04-24 03:25:00,
2013-04-23 22:31:00,38.0,33.3,29.93,NW,325,5.0,5.0,83,0.00,,,0.34,0,Wunderground v.1.15,2013-04-24 03:31:00,
2013-04-23 22:39:00,38.0,33.3,29.93,NW,326,5.0,10.0,83,0.00,,,0.34,0,Wunderground v.1.15,2013-04-24 03:39:00,
2013-04-23 22:44:00,38.0,33.3,29.92,NW,321,6.0,8.0,83,0.00,,,0.34,0,Wunderground v.1.15,2013-04-24 03:44:00,
2013-04-23 22:49:00,38.0,33.3,29.92,NW,323,6.0,9.0,83,0.00,,,0.34,0,Wunderground v.1.15,2013-04-24 03:49:00,
2013-04-23 22:55:00,37.9,33.2,29.92,NW,310,7.0,9.0,83,0.00,,,0.34,0,Wunderground v.1.15,2013-04-24 03:55:00,
2013-04-23 23:00:00,37.9,33.2,29.92,NNW,329,6.0,7.0,83,0.00,,,0.34,0,Wunderground v.1.15,2013-04-24 04:00:00,
2013-04-23 23:01:00,37.9,33.2,29.92,NNW,331,7.0,7.0,83,0.00,,,0.34,0,Wunderground v.1.15,2013-04-24 04:01:00,
2013-04-23 23:02:00,37.9,32.9,29.92,NNW,335,7.0,7.0,82,0.00,,,0.34,0,Wunderground v.1.15,2013-04-24 04:02:00,
2013-04-23 23:04:00,37.9,33.2,29.92,NW,325,6.0,8.0,83,0.00,,,0.34,0,Wunderground v.1.15,2013-04-24 04:04:00,
2013-04-23 23:05:00,37.9,32.9,29.92,NNW,336,6.0,8.0,82,0.00,,,0.34,0,Wunderground v.1.15,2013-04-24 04:05:00,
2013-04-23 23:10:00,37.9,32.9,29.92,NNW,327,5.0,5.0,82,0.00,,,0.34,0,Wunderground v.1.15,2013-04-24 04:10:00,
2013-04-23 23:16:00,37.8,33.1,29.92,NW,311,5.0,8.0,83,0.00,,,0.34,0,Wunderground v.1.15,2013-04-24 04:16:00,
2013-04-23 23:21:00,37.8,32.8,29.92,NW,326,6.0,6.0,82,0.00,,,0.34,0,Wunderground v.1.15,2013-04-24 04:21:00,
2013-04-23 23:27:00,37.7,33.0,29.92,NNW,332,6.0,13.0,82,0.00,,,0.34,0,weatherlink.com 1.10,2013-04-24 04:27:00,
2013-04-23 23:32:00,37.8,32.8,29.92,NW,319,7.0,7.0,82,0.00,,,0.34,0,Wunderground v.1.15,2013-04-24 04:32:00,
2013-04-23 23:37:00,37.7,32.4,29.92,WNW,294,7.0,11.0,81,0.00,,,0.34,0,Wunderground v.1.15,2013-04-24 04:37:00,
2013-04-23 23:42:00,37.7,32.7,29.92,NNW,333,7.0,11.0,82,0.00,,,0.34,0,Wunderground v.1.15,2013-04-24 04:42:00,
2013-04-23 23:49:00,37.7,32.4,29.93,NW,319,7.0,11.0,81,0.00,,,0.34,0,Wunderground v.1.15,2013-04-24 04:49:00,
2013-04-23 23:54:00,37.6,32.3,29.93,NNW,327,7.0,8.0,81,0.00,,,0.34,0,Wunderground v.1.15,2013-04-24 04:54:00,
2013-04-23 23:59:00,37.6,32.3,29.93,NNW,340,6.0,9.0,81,0.00,,,0.00,0,Wunderground v.1.15,2013-04-24 04:59:00,